Terminal Aerodrome Forecast
Issued by NWS

Home | Current Version | Previous Version | Text Only | Print | Product List | Glossary On
Versions: 1 2 3 4 5 6 7 8 9 10 11 12 13 14 15 16 17 18 19 20 21 22 23 24 25 26 27 28 29 30 31 32 33 34 35 36 37 38 39 40 41 42 43 44
000
FTUS42 KFFC 130543
TAFPDK
TAF
KPDK 130543Z 1306/1406 08012KT P6SM -SHRA SCT006 OVC010
     FM130900 07010KT 4SM -SHRA OVC006
     FM131200 08010KT 4SM -SHRA OVC006
     FM140200 10004KT 2SM -SHRA OVC003=

USA.gov is the U.S. government's official web portal to all federal, state and local government web resources and services.